createdAt,value
2018-12-21T00:01:12.000Z,29
2018-12-21T00:02:12.000Z,29
2018-12-21T00:03:12.000Z,29
2018-12-21T00:04:12.000Z,29
2018-12-21T00:06:12.000Z,29
2018-12-21T00:07:12.000Z,29
2018-12-21T00:08:12.000Z,29
2018-12-21T00:09:12.000Z,29
2018-12-21T00:10:11.000Z,30
2018-12-21T00:11:11.000Z,30
2018-12-21T00:12:11.000Z,29
2018-12-21T00:13:11.000Z,30
2018-12-21T00:14:11.000Z,30
2018-12-21T00:15:11.000Z,29
2018-12-21T00:16:11.000Z,29
2018-12-21T00:17:11.000Z,29
2018-12-21T00:19:11.000Z,29
2018-12-21T00:20:11.000Z,30
2018-12-21T00:21:11.000Z,30
2018-12-21T00:22:11.000Z,30
2018-12-21T00:23:11.000Z,30
2018-12-21T00:24:11.000Z,30
2018-12-21T00:26:11.000Z,29
2018-12-21T00:27:11.000Z,30
2018-12-21T00:28:11.000Z,29
2018-12-21T00:29:11.000Z,29
2018-12-21T00:30:11.000Z,30
2018-12-21T00:31:11.000Z,29
2018-12-21T00:33:11.000Z,29
2018-12-21T00:34:11.000Z,30
2018-12-21T00:36:11.000Z,29
2018-12-21T00:37:11.000Z,30
2018-12-21T00:39:11.000Z,29
2018-12-21T00:40:11.000Z,30
2018-12-21T00:41:11.000Z,29
2018-12-21T00:42:11.000Z,30
2018-12-21T00:43:11.000Z,29
2018-12-21T00:44:11.000Z,30
2018-12-21T00:46:11.000Z,29
2018-12-21T00:48:11.000Z,29
2018-12-21T00:49:11.000Z,30
2018-12-21T00:50:11.000Z,30
2018-12-21T00:51:11.000Z,30
2018-12-21T00:52:11.000Z,29
2018-12-21T00:53:11.000Z,30
2018-12-21T00:54:11.000Z,30
2018-12-21T00:55:11.000Z,29
2018-12-21T00:56:11.000Z,29
2018-12-21T00:57:11.000Z,29
2018-12-21T00:58:11.000Z,29
2018-12-21T00:59:11.000Z,29
2018-12-21T01:00:11.000Z,29
2018-12-21T01:01:11.000Z,29
2018-12-21T01:02:11.000Z,29
2018-12-21T01:03:11.000Z,29
2018-12-21T01:04:11.000Z,29
2018-12-21T01:05:11.000Z,29
2018-12-21T01:06:11.000Z,29
2018-12-21T01:07:11.000Z,29
2018-12-21T01:09:11.000Z,29
2018-12-21T01:10:11.000Z,29
2018-12-21T01:11:11.000Z,29
2018-12-21T01:12:11.000Z,29
2018-12-21T01:13:11.000Z,29
2018-12-21T01:14:12.000Z,29
2018-12-21T01:15:12.000Z,29
2018-12-21T01:16:12.000Z,29
2018-12-21T01:18:12.000Z,29
2018-12-21T01:19:12.000Z,29
2018-12-21T01:20:12.000Z,29
2018-12-21T01:21:12.000Z,29
2018-12-21T01:22:12.000Z,29
2018-12-21T01:23:12.000Z,29
2018-12-21T01:24:12.000Z,29
2018-12-21T01:26:12.000Z,29
2018-12-21T01:28:12.000Z,29
2018-12-21T01:29:12.000Z,29
2018-12-21T01:30:12.000Z,29
2018-12-21T01:31:12.000Z,29
2018-12-21T01:32:12.000Z,29
2018-12-21T01:33:12.000Z,29
2018-12-21T01:34:12.000Z,29
2018-12-21T01:36:12.000Z,29
2018-12-21T01:37:12.000Z,29
2018-12-21T01:38:12.000Z,29
2018-12-21T01:39:12.000Z,29
2018-12-21T01:40:12.000Z,29
2018-12-21T01:41:12.000Z,29
2018-12-21T01:42:12.000Z,29
2018-12-21T01:43:12.000Z,29
2018-12-21T01:44:12.000Z,29
2018-12-21T01:45:12.000Z,29
2018-12-21T01:46:12.000Z,29
2018-12-21T01:47:12.000Z,29
2018-12-21T01:49:12.000Z,29
2018-12-21T01:51:12.000Z,29
2018-12-21T01:52:12.000Z,29
2018-12-21T01:54:12.000Z,29
2018-12-21T01:55:12.000Z,29
2018-12-21T01:56:12.000Z,29
2018-12-21T01:57:12.000Z,29
2018-12-21T01:59:12.000Z,29
2018-12-21T02:00:12.000Z,29
2018-12-21T02:01:12.000Z,29
2018-12-21T02:02:12.000Z,29
2018-12-21T02:03:12.000Z,29
2018-12-21T02:04:12.000Z,29
2018-12-21T02:05:12.000Z,29
2018-12-21T02:07:12.000Z,29
2018-12-21T02:08:12.000Z,29
2018-12-21T02:09:12.000Z,29
2018-12-21T02:10:12.000Z,29
2018-12-21T02:12:12.000Z,29
2018-12-21T02:13:12.000Z,29
2018-12-21T02:14:12.000Z,29
2018-12-21T02:16:12.000Z,29
2018-12-21T02:17:12.000Z,29
2018-12-21T02:18:11.000Z,29
2018-12-21T02:19:11.000Z,29
2018-12-21T02:20:11.000Z,29
2018-12-21T02:22:11.000Z,29
2018-12-21T02:23:11.000Z,29
2018-12-21T02:24:11.000Z,29
2018-12-21T02:25:11.000Z,29
2018-12-21T02:26:11.000Z,29
2018-12-21T02:27:11.000Z,29
2018-12-21T02:28:11.000Z,29
2018-12-21T02:29:11.000Z,29
2018-12-21T02:31:11.000Z,29
2018-12-21T02:32:11.000Z,29
2018-12-21T02:33:11.000Z,29
2018-12-21T02:34:11.000Z,29
2018-12-21T02:35:11.000Z,29
2018-12-21T02:37:11.000Z,29
2018-12-21T02:38:11.000Z,29
2018-12-21T02:39:11.000Z,29
2018-12-21T02:40:11.000Z,29
2018-12-21T02:41:11.000Z,29
2018-12-21T02:42:11.000Z,29
2018-12-21T02:43:11.000Z,29
2018-12-21T02:45:11.000Z,29
2018-12-21T02:46:11.000Z,29
2018-12-21T02:47:11.000Z,29
2018-12-21T02:48:11.000Z,29
2018-12-21T02:49:11.000Z,29
2018-12-21T02:51:11.000Z,29
2018-12-21T02:52:11.000Z,29
2018-12-21T02:53:11.000Z,29
2018-12-21T02:54:11.000Z,29
2018-12-21T02:56:11.000Z,29
2018-12-21T02:57:11.000Z,29
2018-12-21T02:58:11.000Z,29
2018-12-21T02:59:11.000Z,29
2018-12-21T03:00:11.000Z,29
2018-12-21T03:01:11.000Z,29
2018-12-21T03:02:11.000Z,29
2018-12-21T03:03:11.000Z,29
2018-12-21T03:04:11.000Z,29
2018-12-21T03:05:11.000Z,29
2018-12-21T03:06:11.000Z,29
2018-12-21T03:08:11.000Z,29
2018-12-21T03:09:11.000Z,29
2018-12-21T03:10:11.000Z,29
2018-12-21T03:11:11.000Z,29
2018-12-21T03:12:11.000Z,29
2018-12-21T03:13:11.000Z,29
2018-12-21T03:14:11.000Z,29
2018-12-21T03:15:11.000Z,29
2018-12-21T03:16:11.000Z,29
2018-12-21T03:17:11.000Z,29
2018-12-21T03:18:11.000Z,29
2018-12-21T03:19:11.000Z,29
2018-12-21T03:20:11.000Z,29
2018-12-21T03:22:11.000Z,29
2018-12-21T03:24:11.000Z,29
2018-12-21T03:25:11.000Z,29
2018-12-21T03:26:11.000Z,29
2018-12-21T03:27:11.000Z,29
2018-12-21T03:28:11.000Z,29
2018-12-21T03:29:11.000Z,29
2018-12-21T03:30:11.000Z,29
2018-12-21T03:31:11.000Z,29
2018-12-21T03:32:11.000Z,29
2018-12-21T03:34:11.000Z,29
2018-12-21T03:35:11.000Z,29
2018-12-21T03:36:11.000Z,29
2018-12-21T03:37:11.000Z,29
2018-12-21T03:38:11.000Z,29
2018-12-21T03:39:11.000Z,29
2018-12-21T03:41:11.000Z,29
2018-12-21T03:42:11.000Z,29
2018-12-21T03:43:11.000Z,29
2018-12-21T03:44:11.000Z,29
2018-12-21T03:45:11.000Z,29
2018-12-21T03:46:11.000Z,29
2018-12-21T03:47:11.000Z,29
2018-12-21T03:48:11.000Z,29
2018-12-21T03:49:11.000Z,29
2018-12-21T03:50:11.000Z,29
2018-12-21T03:51:11.000Z,29
2018-12-21T03:52:11.000Z,29
2018-12-21T03:53:11.000Z,29
2018-12-21T03:54:11.000Z,29
2018-12-21T03:55:11.000Z,29
2018-12-21T03:56:11.000Z,29
2018-12-21T03:57:11.000Z,29
2018-12-21T03:58:11.000Z,29
2018-12-21T03:59:11.000Z,29
2018-12-21T04:00:11.000Z,29
2018-12-21T04:01:11.000Z,29
2018-12-21T04:03:11.000Z,29
2018-12-21T04:04:11.000Z,29
2018-12-21T04:05:11.000Z,29
2018-12-21T04:06:11.000Z,29
2018-12-21T04:07:11.000Z,29
2018-12-21T04:08:11.000Z,29
2018-12-21T04:09:11.000Z,29
2018-12-21T04:10:11.000Z,29
2018-12-21T04:11:11.000Z,29
2018-12-21T04:12:11.000Z,29
2018-12-21T04:13:11.000Z,29
2018-12-21T04:14:11.000Z,29
2018-12-21T04:15:11.000Z,29
2018-12-21T04:16:11.000Z,29
2018-12-21T04:18:11.000Z,29
2018-12-21T04:19:11.000Z,29
2018-12-21T04:20:11.000Z,29
2018-12-21T04:21:11.000Z,29
2018-12-21T04:22:11.000Z,29
2018-12-21T04:23:11.000Z,29
2018-12-21T04:24:11.000Z,29
2018-12-21T04:25:11.000Z,29
2018-12-21T04:26:11.000Z,29
2018-12-21T04:27:11.000Z,29
2018-12-21T04:28:11.000Z,29
2018-12-21T04:29:11.000Z,29
2018-12-21T04:30:11.000Z,29
2018-12-21T04:31:11.000Z,29
2018-12-21T04:32:11.000Z,29
2018-12-21T04:33:11.000Z,29
2018-12-21T04:34:11.000Z,29
2018-12-21T04:35:11.000Z,29
2018-12-21T04:36:11.000Z,29
2018-12-21T04:37:11.000Z,29
2018-12-21T04:38:11.000Z,29
2018-12-21T04:39:11.000Z,29
2018-12-21T04:40:11.000Z,29
2018-12-21T04:41:11.000Z,29
2018-12-21T04:42:11.000Z,29
2018-12-21T04:43:11.000Z,29
2018-12-21T04:44:11.000Z,29
2018-12-21T04:45:11.000Z,29
2018-12-21T04:46:11.000Z,29
2018-12-21T04:47:11.000Z,29
2018-12-21T04:49:11.000Z,29
2018-12-21T04:50:11.000Z,29
2018-12-21T04:51:11.000Z,29
2018-12-21T04:52:11.000Z,29
2018-12-21T04:53:11.000Z,29
2018-12-21T04:54:11.000Z,29
2018-12-21T04:55:11.000Z,29
2018-12-21T04:56:11.000Z,29
2018-12-21T04:57:11.000Z,29
2018-12-21T04:58:11.000Z,29
2018-12-21T04:59:11.000Z,29
2018-12-21T05:00:11.000Z,29
2018-12-21T05:02:11.000Z,29
2018-12-21T05:03:11.000Z,29
2018-12-21T05:04:11.000Z,29
2018-12-21T05:05:11.000Z,29
2018-12-21T05:06:11.000Z,29
2018-12-21T05:07:11.000Z,29
2018-12-21T05:08:11.000Z,29
2018-12-21T05:09:11.000Z,29
2018-12-21T05:10:11.000Z,29
2018-12-21T05:11:11.000Z,29
2018-12-21T05:12:11.000Z,29
2018-12-21T05:13:11.000Z,29
2018-12-21T05:14:11.000Z,29
2018-12-21T05:15:11.000Z,29
2018-12-21T05:16:11.000Z,29
2018-12-21T05:17:11.000Z,29
2018-12-21T05:19:11.000Z,29
2018-12-21T05:20:11.000Z,29
2018-12-21T05:21:11.000Z,29
2018-12-21T05:22:11.000Z,30
2018-12-21T05:23:11.000Z,30
2018-12-21T05:24:11.000Z,30
2018-12-21T05:25:11.000Z,30
2018-12-21T05:26:11.000Z,30
2018-12-21T05:27:11.000Z,30
2018-12-21T05:28:11.000Z,30
2018-12-21T05:29:11.000Z,30
2018-12-21T05:30:11.000Z,30
2018-12-21T05:31:11.000Z,31
2018-12-21T05:32:11.000Z,30
2018-12-21T05:33:11.000Z,31
2018-12-21T05:34:11.000Z,30
2018-12-21T05:35:11.000Z,31
2018-12-21T05:36:11.000Z,31
2018-12-21T05:37:11.000Z,30
2018-12-21T05:38:11.000Z,31
2018-12-21T05:39:11.000Z,31
2018-12-21T05:40:11.000Z,31
2018-12-21T05:42:11.000Z,30
2018-12-21T05:43:11.000Z,30
2018-12-21T05:44:11.000Z,30
2018-12-21T05:45:11.000Z,30
2018-12-21T05:46:11.000Z,30
2018-12-21T05:47:11.000Z,30
2018-12-21T05:48:11.000Z,30
2018-12-21T05:49:11.000Z,30
2018-12-21T05:50:11.000Z,31
2018-12-21T05:51:11.000Z,31
2018-12-21T05:52:11.000Z,30
2018-12-21T05:54:11.000Z,30
2018-12-21T05:55:11.000Z,30
2018-12-21T05:56:11.000Z,31
2018-12-21T05:57:11.000Z,30
2018-12-21T05:58:11.000Z,30
2018-12-21T05:59:11.000Z,30
2018-12-21T06:00:11.000Z,30
2018-12-21T06:01:11.000Z,31
2018-12-21T06:02:11.000Z,31
2018-12-21T06:03:11.000Z,30
2018-12-21T06:04:11.000Z,30
2018-12-21T06:05:11.000Z,31
2018-12-21T06:06:11.000Z,30
2018-12-21T06:07:11.000Z,30
2018-12-21T06:08:11.000Z,30
2018-12-21T06:09:11.000Z,30
2018-12-21T06:10:11.000Z,30
2018-12-21T06:11:11.000Z,30
2018-12-21T06:12:11.000Z,30
2018-12-21T06:13:11.000Z,30
2018-12-21T06:14:11.000Z,30
2018-12-21T06:15:11.000Z,30
2018-12-21T06:16:11.000Z,30
2018-12-21T06:17:11.000Z,30
2018-12-21T06:18:11.000Z,30
2018-12-21T06:19:11.000Z,30
2018-12-21T06:20:11.000Z,30
2018-12-21T06:21:11.000Z,30
2018-12-21T06:22:11.000Z,30
2018-12-21T06:23:11.000Z,30
2018-12-21T06:24:11.000Z,30
2018-12-21T06:25:11.000Z,30
2018-12-21T06:26:11.000Z,30
2018-12-21T06:27:11.000Z,30
2018-12-21T06:28:11.000Z,30
2018-12-21T06:30:11.000Z,30
2018-12-21T06:31:11.000Z,30
2018-12-21T06:32:11.000Z,30
2018-12-21T06:33:12.000Z,30
2018-12-21T06:35:12.000Z,30
2018-12-21T06:36:12.000Z,30
2018-12-21T06:37:12.000Z,30
2018-12-21T06:38:12.000Z,30
2018-12-21T06:39:12.000Z,30
2018-12-21T06:40:12.000Z,30
2018-12-21T06:41:12.000Z,31
2018-12-21T06:42:12.000Z,30
2018-12-21T06:44:12.000Z,30
2018-12-21T06:45:12.000Z,31
2018-12-21T06:47:12.000Z,30
2018-12-21T06:48:12.000Z,31
2018-12-21T06:49:12.000Z,31
2018-12-21T06:50:12.000Z,31
2018-12-21T06:51:12.000Z,31
2018-12-21T06:52:12.000Z,32
2018-12-21T06:53:12.000Z,31
2018-12-21T06:54:12.000Z,31
2018-12-21T06:55:12.000Z,32
2018-12-21T06:56:12.000Z,32
2018-12-21T06:57:12.000Z,32
2018-12-21T06:59:12.000Z,32
2018-12-21T07:00:12.000Z,32
2018-12-21T07:02:12.000Z,32
2018-12-21T07:03:12.000Z,32
2018-12-21T07:04:12.000Z,32
2018-12-21T07:06:12.000Z,32
2018-12-21T07:07:12.000Z,33
2018-12-21T07:08:12.000Z,33
2018-12-21T07:09:12.000Z,33
2018-12-21T07:10:12.000Z,33
2018-12-21T07:11:12.000Z,33
2018-12-21T07:12:12.000Z,33
2018-12-21T07:13:12.000Z,33
2018-12-21T07:14:12.000Z,33
2018-12-21T07:16:12.000Z,33
2018-12-21T07:17:12.000Z,33
2018-12-21T07:18:12.000Z,33
2018-12-21T07:19:12.000Z,33
2018-12-21T07:20:12.000Z,33
2018-12-21T07:21:12.000Z,33
2018-12-21T07:22:12.000Z,33
2018-12-21T07:23:12.000Z,33
2018-12-21T07:24:12.000Z,33
2018-12-21T07:25:12.000Z,33
2018-12-21T07:26:12.000Z,33
2018-12-21T07:27:12.000Z,33
2018-12-21T07:28:12.000Z,33
2018-12-21T07:29:12.000Z,33
2018-12-21T07:30:12.000Z,33
2018-12-21T07:31:12.000Z,33
2018-12-21T07:32:12.000Z,33
2018-12-21T07:33:12.000Z,33
2018-12-21T07:34:12.000Z,33
2018-12-21T07:35:12.000Z,33
2018-12-21T07:36:12.000Z,33
2018-12-21T07:37:11.000Z,33
2018-12-21T07:38:11.000Z,33
2018-12-21T07:39:11.000Z,33
2018-12-21T07:40:11.000Z,33
2018-12-21T07:41:11.000Z,33
2018-12-21T07:42:11.000Z,32
2018-12-21T07:43:11.000Z,32
2018-12-21T07:44:11.000Z,32
2018-12-21T07:45:11.000Z,32
2018-12-21T07:47:11.000Z,32
2018-12-21T07:48:11.000Z,32
2018-12-21T07:49:11.000Z,31
2018-12-21T07:50:11.000Z,31
2018-12-21T07:51:11.000Z,31
2018-12-21T07:52:11.000Z,31
2018-12-21T07:53:11.000Z,31
2018-12-21T07:54:11.000Z,31
2018-12-21T07:55:11.000Z,31
2018-12-21T07:57:11.000Z,31
2018-12-21T07:58:11.000Z,31
2018-12-21T07:59:11.000Z,31
2018-12-21T08:00:11.000Z,31
2018-12-21T08:01:11.000Z,31
2018-12-21T08:02:11.000Z,31
2018-12-21T08:03:11.000Z,31
2018-12-21T08:04:11.000Z,31
2018-12-21T08:05:11.000Z,31
2018-12-21T08:06:11.000Z,31
2018-12-21T08:07:11.000Z,31
2018-12-21T08:08:11.000Z,31
2018-12-21T08:09:11.000Z,31
2018-12-21T08:10:11.000Z,31
2018-12-21T08:11:11.000Z,31
2018-12-21T08:12:11.000Z,31
2018-12-21T08:13:11.000Z,31
2018-12-21T08:14:11.000Z,31
2018-12-21T08:15:11.000Z,31
2018-12-21T08:16:11.000Z,31
2018-12-21T08:18:11.000Z,31
2018-12-21T08:19:11.000Z,31
2018-12-21T08:20:11.000Z,31
2018-12-21T08:21:11.000Z,31
2018-12-21T08:22:11.000Z,31
2018-12-21T08:23:11.000Z,31
2018-12-21T08:24:11.000Z,31
2018-12-21T08:25:11.000Z,31
2018-12-21T08:26:11.000Z,31
2018-12-21T08:27:11.000Z,31
2018-12-21T08:28:11.000Z,32
2018-12-21T08:29:11.000Z,31
2018-12-21T08:30:11.000Z,32
2018-12-21T08:31:11.000Z,32
2018-12-21T08:32:11.000Z,32
2018-12-21T08:33:11.000Z,32
2018-12-21T08:34:11.000Z,32
2018-12-21T08:35:11.000Z,32
2018-12-21T08:36:11.000Z,32
2018-12-21T08:37:11.000Z,32
2018-12-21T08:38:11.000Z,31
2018-12-21T08:39:11.000Z,32
2018-12-21T08:41:11.000Z,32
2018-12-21T08:42:11.000Z,32
2018-12-21T08:43:11.000Z,32
2018-12-21T08:45:11.000Z,32
2018-12-21T08:46:11.000Z,32
2018-12-21T08:47:11.000Z,32
2018-12-21T08:49:11.000Z,32
2018-12-21T08:50:11.000Z,32
2018-12-21T08:51:11.000Z,32
2018-12-21T08:52:11.000Z,32
2018-12-21T08:53:11.000Z,32
2018-12-21T08:54:11.000Z,32
2018-12-21T08:56:11.000Z,32
2018-12-21T08:57:11.000Z,32
2018-12-21T08:58:11.000Z,32
2018-12-21T08:59:11.000Z,32
2018-12-21T09:00:11.000Z,32
2018-12-21T09:02:11.000Z,32
2018-12-21T09:04:11.000Z,32
2018-12-21T09:05:11.000Z,32
2018-12-21T09:06:11.000Z,32
2018-12-21T09:07:11.000Z,32
2018-12-21T09:08:11.000Z,32
2018-12-21T09:09:11.000Z,32
2018-12-21T09:10:11.000Z,32
2018-12-21T09:11:11.000Z,32
2018-12-21T09:12:11.000Z,32
2018-12-21T09:13:11.000Z,32
2018-12-21T09:14:11.000Z,32
2018-12-21T09:15:11.000Z,32
2018-12-21T09:16:11.000Z,32
2018-12-21T09:18:11.000Z,32
2018-12-21T09:19:11.000Z,32
2018-12-21T09:20:11.000Z,32
2018-12-21T09:21:11.000Z,32
2018-12-21T09:22:11.000Z,32
2018-12-21T09:23:11.000Z,32
2018-12-21T09:24:11.000Z,32
2018-12-21T09:25:11.000Z,32
2018-12-21T09:26:11.000Z,32
2018-12-21T09:27:11.000Z,32
2018-12-21T09:28:11.000Z,32
2018-12-21T09:29:11.000Z,32
2018-12-21T09:30:11.000Z,32
2018-12-21T09:31:11.000Z,32
2018-12-21T09:32:11.000Z,32
2018-12-21T09:33:11.000Z,32
2018-12-21T09:34:11.000Z,32
2018-12-21T09:35:11.000Z,32
2018-12-21T09:36:11.000Z,32
2018-12-21T09:37:11.000Z,31
2018-12-21T09:39:11.000Z,31
2018-12-21T09:40:11.000Z,31
2018-12-21T09:41:11.000Z,31
2018-12-21T09:43:11.000Z,30
2018-12-21T09:44:11.000Z,30
2018-12-21T09:45:12.000Z,30
2018-12-21T09:46:12.000Z,30
2018-12-21T09:47:12.000Z,30
2018-12-21T09:49:12.000Z,30
2018-12-21T09:50:12.000Z,30
2018-12-21T09:52:12.000Z,30
2018-12-21T09:53:12.000Z,30
2018-12-21T09:54:12.000Z,30
2018-12-21T09:55:12.000Z,30
2018-12-21T09:56:12.000Z,30
2018-12-21T09:57:12.000Z,30
2018-12-21T09:58:12.000Z,30
2018-12-21T10:00:12.000Z,30
2018-12-21T10:01:12.000Z,30
2018-12-21T10:02:12.000Z,30
2018-12-21T10:03:12.000Z,30
2018-12-21T10:04:12.000Z,30
2018-12-21T10:05:12.000Z,30
2018-12-21T10:06:12.000Z,30
2018-12-21T10:07:12.000Z,30
2018-12-21T10:08:12.000Z,30
2018-12-21T10:09:12.000Z,30
2018-12-21T10:10:12.000Z,30
2018-12-21T10:11:12.000Z,30
2018-12-21T10:12:12.000Z,30
2018-12-21T10:13:12.000Z,30
2018-12-21T10:14:12.000Z,30
2018-12-21T10:15:12.000Z,30
2018-12-21T10:16:12.000Z,30
2018-12-21T10:17:12.000Z,30
2018-12-21T10:18:12.000Z,30
2018-12-21T10:19:12.000Z,30
2018-12-21T10:20:12.000Z,30
2018-12-21T10:21:12.000Z,30
2018-12-21T10:23:12.000Z,29
2018-12-21T10:24:12.000Z,29
2018-12-21T10:25:12.000Z,29
2018-12-21T10:26:12.000Z,29
2018-12-21T10:27:12.000Z,29
2018-12-21T10:28:12.000Z,30
2018-12-21T10:30:12.000Z,29
2018-12-21T10:31:12.000Z,29
2018-12-21T10:32:12.000Z,30
2018-12-21T10:33:12.000Z,30
2018-12-21T10:34:12.000Z,29
2018-12-21T10:35:12.000Z,29
2018-12-21T10:36:12.000Z,29
2018-12-21T10:37:12.000Z,29
2018-12-21T10:38:12.000Z,29
2018-12-21T10:39:12.000Z,29
2018-12-21T10:40:12.000Z,29
2018-12-21T10:41:12.000Z,29
2018-12-21T10:43:12.000Z,29
2018-12-21T10:44:12.000Z,29
2018-12-21T10:45:12.000Z,29
2018-12-21T10:46:12.000Z,29
2018-12-21T10:47:12.000Z,29
2018-12-21T10:48:12.000Z,29
2018-12-21T10:49:11.000Z,29
2018-12-21T10:50:11.000Z,29
2018-12-21T10:52:11.000Z,29
2018-12-21T10:53:11.000Z,29
2018-12-21T10:54:11.000Z,29
2018-12-21T10:55:11.000Z,30
2018-12-21T10:56:11.000Z,30
2018-12-21T10:57:11.000Z,30
2018-12-21T10:59:11.000Z,30
2018-12-21T11:00:11.000Z,30
2018-12-21T11:01:11.000Z,30
2018-12-21T11:03:11.000Z,30
2018-12-21T11:04:11.000Z,30
2018-12-21T11:05:11.000Z,30
2018-12-21T11:06:11.000Z,30
2018-12-21T11:08:11.000Z,30
2018-12-21T11:10:11.000Z,30
2018-12-21T11:11:11.000Z,30
2018-12-21T11:12:11.000Z,30
2018-12-21T11:13:11.000Z,30
2018-12-21T11:14:11.000Z,30
2018-12-21T11:15:11.000Z,30
2018-12-21T11:16:11.000Z,30
2018-12-21T11:17:11.000Z,30
2018-12-21T11:18:11.000Z,30
2018-12-21T11:19:11.000Z,30
2018-12-21T11:20:11.000Z,30
2018-12-21T11:21:11.000Z,30
2018-12-21T11:22:11.000Z,30
2018-12-21T11:23:11.000Z,30
2018-12-21T11:24:11.000Z,30
2018-12-21T11:25:11.000Z,30
2018-12-21T11:26:11.000Z,30
2018-12-21T11:27:11.000Z,30
2018-12-21T11:28:11.000Z,30
2018-12-21T11:29:11.000Z,30
2018-12-21T11:30:11.000Z,30
2018-12-21T11:32:11.000Z,30
2018-12-21T11:33:11.000Z,30
2018-12-21T11:34:11.000Z,30
2018-12-21T11:35:11.000Z,30
2018-12-21T11:36:11.000Z,30
2018-12-21T11:37:11.000Z,30
2018-12-21T11:38:11.000Z,30
2018-12-21T11:39:11.000Z,30
2018-12-21T11:40:11.000Z,30
2018-12-21T11:41:11.000Z,30
2018-12-21T11:42:11.000Z,30
2018-12-21T11:43:11.000Z,30
2018-12-21T11:44:11.000Z,30
2018-12-21T11:45:11.000Z,30
2018-12-21T11:46:11.000Z,30
2018-12-21T11:47:11.000Z,30
2018-12-21T11:48:11.000Z,30
2018-12-21T11:49:11.000Z,30
2018-12-21T11:50:11.000Z,30
2018-12-21T11:51:11.000Z,30
2018-12-21T11:52:12.000Z,30
2018-12-21T11:53:12.000Z,29
2018-12-21T11:54:12.000Z,30
2018-12-21T11:55:12.000Z,30
2018-12-21T11:56:12.000Z,30
2018-12-21T11:57:12.000Z,30
2018-12-21T11:58:12.000Z,29
2018-12-21T12:00:12.000Z,29
2018-12-21T12:01:12.000Z,30
2018-12-21T12:02:12.000Z,30
2018-12-21T12:03:12.000Z,29
2018-12-21T12:04:12.000Z,30
2018-12-21T12:05:12.000Z,30
2018-12-21T12:06:12.000Z,30
2018-12-21T12:07:12.000Z,30
2018-12-21T12:08:12.000Z,30
2018-12-21T12:09:12.000Z,30
2018-12-21T12:10:12.000Z,30
2018-12-21T12:11:12.000Z,30
2018-12-21T12:12:12.000Z,30
2018-12-21T12:13:12.000Z,30
2018-12-21T12:14:12.000Z,30
2018-12-21T12:15:12.000Z,30
2018-12-21T12:16:12.000Z,29
2018-12-21T12:17:12.000Z,30
2018-12-21T12:19:12.000Z,30
2018-12-21T12:20:12.000Z,30
2018-12-21T12:21:12.000Z,30
2018-12-21T12:22:12.000Z,30
2018-12-21T12:24:12.000Z,30
2018-12-21T12:25:12.000Z,30
2018-12-21T12:27:12.000Z,30
2018-12-21T12:28:12.000Z,30
2018-12-21T12:30:12.000Z,30
2018-12-21T12:31:12.000Z,30
2018-12-21T12:32:12.000Z,30
2018-12-21T12:33:12.000Z,30
2018-12-21T12:34:12.000Z,30
2018-12-21T12:35:12.000Z,31
2018-12-21T12:36:12.000Z,31
2018-12-21T12:37:12.000Z,30
2018-12-21T12:38:12.000Z,30
2018-12-21T12:39:12.000Z,30
2018-12-21T12:40:12.000Z,30
2018-12-21T12:41:12.000Z,30
2018-12-21T12:42:12.000Z,30
2018-12-21T12:44:12.000Z,30
2018-12-21T12:45:12.000Z,31
2018-12-21T12:46:12.000Z,31
2018-12-21T12:47:12.000Z,31
2018-12-21T12:49:12.000Z,31
2018-12-21T12:50:12.000Z,31
2018-12-21T12:51:12.000Z,31
2018-12-21T12:52:12.000Z,32
2018-12-21T12:53:12.000Z,32
2018-12-21T12:54:12.000Z,32
2018-12-21T12:56:11.000Z,33
2018-12-21T12:57:11.000Z,33
2018-12-21T12:58:11.000Z,33
2018-12-21T12:59:11.000Z,33
2018-12-21T13:00:11.000Z,33
2018-12-21T13:01:11.000Z,33
2018-12-21T13:02:11.000Z,34
2018-12-21T13:03:11.000Z,33
2018-12-21T13:04:11.000Z,34
2018-12-21T13:05:11.000Z,34
2018-12-21T13:06:11.000Z,34
2018-12-21T13:07:11.000Z,34
2018-12-21T13:08:11.000Z,34
2018-12-21T13:09:11.000Z,34
2018-12-21T13:10:11.000Z,34
2018-12-21T13:11:11.000Z,34
2018-12-21T13:12:11.000Z,34
2018-12-21T13:13:11.000Z,34
2018-12-21T13:14:11.000Z,34
2018-12-21T13:15:11.000Z,34
2018-12-21T13:17:11.000Z,34
2018-12-21T13:18:11.000Z,34
2018-12-21T13:19:11.000Z,34
2018-12-21T13:20:11.000Z,35
2018-12-21T13:21:11.000Z,34
2018-12-21T13:22:11.000Z,35
2018-12-21T13:23:11.000Z,35
2018-12-21T13:24:11.000Z,35
2018-12-21T13:25:11.000Z,35
2018-12-21T13:27:11.000Z,35
2018-12-21T13:28:11.000Z,35
2018-12-21T13:29:11.000Z,35
2018-12-21T13:30:11.000Z,35
2018-12-21T13:31:11.000Z,35
2018-12-21T13:32:11.000Z,35
2018-12-21T13:33:11.000Z,35
2018-12-21T13:34:11.000Z,35
2018-12-21T13:35:11.000Z,35
2018-12-21T13:36:11.000Z,36
2018-12-21T13:37:11.000Z,35
2018-12-21T13:38:11.000Z,35
2018-12-21T13:39:11.000Z,35
2018-12-21T13:40:11.000Z,35
2018-12-21T13:41:11.000Z,35
2018-12-21T13:42:11.000Z,35
2018-12-21T13:43:11.000Z,35
2018-12-21T13:44:11.000Z,36
2018-12-21T13:45:11.000Z,36
2018-12-21T13:46:11.000Z,36
2018-12-21T13:47:11.000Z,35
2018-12-21T13:48:11.000Z,36
2018-12-21T13:49:11.000Z,36
2018-12-21T13:50:11.000Z,36
2018-12-21T13:51:11.000Z,36
2018-12-21T13:52:11.000Z,36
2018-12-21T13:53:11.000Z,36
2018-12-21T13:54:11.000Z,36
2018-12-21T13:55:11.000Z,36
2018-12-21T13:57:11.000Z,36
2018-12-21T13:58:11.000Z,36
2018-12-21T14:00:11.000Z,36
2018-12-21T14:01:11.000Z,36
2018-12-21T14:02:11.000Z,36
2018-12-21T14:03:11.000Z,36
2018-12-21T14:04:11.000Z,36
2018-12-21T14:05:11.000Z,36
2018-12-21T14:06:11.000Z,36
2018-12-21T14:07:11.000Z,36
2018-12-21T14:08:11.000Z,36
2018-12-21T14:09:11.000Z,36
2018-12-21T14:10:11.000Z,36
2018-12-21T14:11:11.000Z,36
2018-12-21T14:13:11.000Z,36
2018-12-21T14:14:11.000Z,36
2018-12-21T14:15:11.000Z,36
2018-12-21T14:16:11.000Z,36
2018-12-21T14:17:11.000Z,36
2018-12-21T14:18:11.000Z,36
2018-12-21T14:19:11.000Z,36
2018-12-21T14:20:11.000Z,36
2018-12-21T14:21:11.000Z,36
2018-12-21T14:22:11.000Z,36
2018-12-21T14:23:11.000Z,36
2018-12-21T14:25:11.000Z,35
2018-12-21T14:26:11.000Z,35
2018-12-21T14:27:11.000Z,35
2018-12-21T14:28:11.000Z,35
2018-12-21T14:30:11.000Z,35
2018-12-21T14:31:11.000Z,35
2018-12-21T14:32:11.000Z,35
2018-12-21T14:33:11.000Z,35
2018-12-21T14:34:11.000Z,35
2018-12-21T14:35:11.000Z,35
2018-12-21T14:36:11.000Z,35
2018-12-21T14:37:11.000Z,35
2018-12-21T14:38:11.000Z,35
2018-12-21T14:39:11.000Z,35
2018-12-21T14:41:11.000Z,35
2018-12-21T14:42:11.000Z,35
2018-12-21T14:43:11.000Z,35
2018-12-21T14:44:11.000Z,35
2018-12-21T14:45:11.000Z,35
2018-12-21T14:46:11.000Z,35
2018-12-21T14:47:11.000Z,35
2018-12-21T14:49:11.000Z,34
2018-12-21T14:50:11.000Z,34
2018-12-21T14:51:11.000Z,34
2018-12-21T14:52:11.000Z,34
2018-12-21T14:53:11.000Z,34
2018-12-21T14:54:11.000Z,34
2018-12-21T14:55:11.000Z,34
2018-12-21T14:57:11.000Z,34
2018-12-21T14:58:11.000Z,34
2018-12-21T15:00:11.000Z,34
2018-12-21T15:01:11.000Z,34
2018-12-21T15:02:11.000Z,34
2018-12-21T15:03:11.000Z,34
2018-12-21T15:04:11.000Z,34
2018-12-21T15:05:11.000Z,34
2018-12-21T15:06:11.000Z,34
2018-12-21T15:07:11.000Z,34
2018-12-21T15:08:11.000Z,34
2018-12-21T15:10:11.000Z,34
2018-12-21T15:11:11.000Z,34
2018-12-21T15:12:11.000Z,34
2018-12-21T15:13:11.000Z,34
2018-12-21T15:15:11.000Z,34
2018-12-21T15:16:11.000Z,34
2018-12-21T15:17:11.000Z,34
2018-12-21T15:18:11.000Z,34
2018-12-21T15:19:11.000Z,34
2018-12-21T15:20:11.000Z,34
2018-12-21T15:21:11.000Z,34
2018-12-21T15:22:11.000Z,34
2018-12-21T15:24:11.000Z,34
2018-12-21T15:25:11.000Z,34
2018-12-21T15:26:11.000Z,34
2018-12-21T15:27:11.000Z,34
2018-12-21T15:29:11.000Z,34
2018-12-21T15:30:11.000Z,34
2018-12-21T15:31:11.000Z,34
2018-12-21T15:32:11.000Z,34
2018-12-21T15:33:11.000Z,34
2018-12-21T15:35:11.000Z,34
2018-12-21T15:37:11.000Z,34
2018-12-21T15:38:11.000Z,34
2018-12-21T15:39:11.000Z,34
2018-12-21T15:40:11.000Z,34
2018-12-21T15:41:11.000Z,34
2018-12-21T15:42:11.000Z,34
2018-12-21T15:43:11.000Z,34
2018-12-21T15:44:11.000Z,34
2018-12-21T15:46:11.000Z,33
2018-12-21T15:47:11.000Z,34
2018-12-21T15:48:11.000Z,33
2018-12-21T15:49:11.000Z,34
2018-12-21T15:50:11.000Z,34
2018-12-21T15:51:11.000Z,33
2018-12-21T15:52:11.000Z,33